createdAt,value
2022-11-15T04:27:14.449Z,26.30
2022-11-15T04:30:06.114Z,31.60
2022-11-15T04:32:54.540Z,37.10
2022-11-15T04:35:44.513Z,37.60
2022-11-15T04:38:35.543Z,37.60
2022-11-15T04:41:23.915Z,35.70
2022-11-15T04:44:16.052Z,40.00
2022-11-15T04:47:08.094Z,44.90
2022-11-15T04:49:58.239Z,42.10
2022-11-15T04:52:55.540Z,42.00
2022-11-15T04:55:48.720Z,44.60
2022-11-15T04:58:38.451Z,45.90
2022-11-15T05:01:28.507Z,45.40
2022-11-15T05:04:22.289Z,43.50
2022-11-15T05:07:12.199Z,45.80
2022-11-15T05:10:01.766Z,35.00
2022-11-15T05:12:50.842Z,38.40
2022-11-15T05:15:39.932Z,38.60
2022-11-15T05:18:29.299Z,36.80
2022-11-15T05:21:19.255Z,33.50
2022-11-15T05:24:12.529Z,28.10
2022-11-15T05:27:01.904Z,23.40
2022-11-15T05:29:51.798Z,21.90
2022-11-15T05:32:41.537Z,29.30
2022-11-15T05:35:41.600Z,22.80
2022-11-15T05:38:31.898Z,29.20
2022-11-15T05:41:24.069Z,24.90
2022-11-15T05:44:15.171Z,23.50
2022-11-15T05:47:06.506Z,20.50
2022-11-15T05:49:56.645Z,26.40
2022-11-15T05:52:47.810Z,31.90
2022-11-15T05:55:40.685Z,24.00
2022-11-15T05:58:32.280Z,27.00
2022-11-15T06:01:22.599Z,23.20
2022-11-15T06:04:12.079Z,26.70
2022-11-15T06:07:02.647Z,29.60
2022-11-15T06:09:52.549Z,35.10
2022-11-15T06:12:42.095Z,63.20
2022-11-15T06:15:34.956Z,58.10
2022-11-15T06:18:24.946Z,52.70
2022-11-15T06:21:14.255Z,48.70
2022-11-15T06:24:03.644Z,45.50
2022-11-15T06:26:53.835Z,40.00
2022-11-15T06:29:42.878Z,40.80
2022-11-15T06:32:32.748Z,37.20
2022-11-15T06:35:22.279Z,40.50
2022-11-15T06:38:12.464Z,41.80
2022-11-15T06:41:08.285Z,43.50
2022-11-15T06:44:01.992Z,41.30
2022-11-15T06:46:53.401Z,41.20
2022-11-15T06:49:42.188Z,38.60
2022-11-15T06:52:33.847Z,37.20
2022-11-15T06:55:22.603Z,38.90
2022-11-15T06:58:12.019Z,37.80
2022-11-15T07:01:06.909Z,36.00
2022-11-15T07:03:57.364Z,34.70
2022-11-15T07:06:49.444Z,31.90
2022-11-15T07:09:39.080Z,34.50
2022-11-15T07:12:28.791Z,33.20
2022-11-15T07:15:20.079Z,33.10
2022-11-15T07:18:10.159Z,32.70
2022-11-15T07:21:03.547Z,32.50
2022-11-15T07:23:53.354Z,30.40
2022-11-15T07:26:42.985Z,30.00
2022-11-15T07:29:33.218Z,28.00
2022-11-15T07:32:22.381Z,28.50
2022-11-15T07:35:11.576Z,24.80
2022-11-15T07:38:03.399Z,23.60
2022-11-15T07:40:59.467Z,21.70
2022-11-15T07:43:47.786Z,24.00
2022-11-15T07:46:37.791Z,22.50
2022-11-15T07:49:26.929Z,23.30
2022-11-15T07:52:16.758Z,26.00
2022-11-15T07:55:06.750Z,25.00
2022-11-15T07:58:02.134Z,25.20
2022-11-15T08:00:51.639Z,25.30
2022-11-15T08:03:41.183Z,20.80
2022-11-15T08:06:30.556Z,20.20
2022-11-15T08:09:20.092Z,20.20
2022-11-15T08:12:10.002Z,21.50
2022-11-15T08:15:00.172Z,20.90
2022-11-15T08:17:54.973Z,23.70
2022-11-15T08:20:45.328Z,20.70
2022-11-15T08:23:35.185Z,20.50
2022-11-15T08:26:26.303Z,18.60
2022-11-15T08:29:16.075Z,20.90
2022-11-15T08:32:04.636Z,18.50
2022-11-15T08:34:54.818Z,19.00
2022-11-15T08:37:44.526Z,18.50
2022-11-15T08:40:34.020Z,17.40
2022-11-15T08:43:23.703Z,17.70
2022-11-15T08:46:15.097Z,16.70
2022-11-15T08:49:04.815Z,18.60
2022-11-15T08:51:54.815Z,19.50
2022-11-15T08:54:44.815Z,19.90
2022-11-15T08:57:35.184Z,18.50
2022-11-15T09:00:23.633Z,19.00
2022-11-15T09:03:12.678Z,19.50
2022-11-15T09:06:03.198Z,19.00
2022-11-15T09:08:52.746Z,19.30
2022-11-15T09:11:42.881Z,22.00
2022-11-15T09:14:31.284Z,19.00
2022-11-15T09:17:24.738Z,20.90
2022-11-15T09:20:15.590Z,23.30
2022-11-15T09:23:05.518Z,22.80
2022-11-15T09:25:54.701Z,24.50
2022-11-15T09:28:44.369Z,26.30
2022-11-15T09:31:34.312Z,26.30
2022-11-15T09:34:24.012Z,26.60
2022-11-15T09:37:13.693Z,29.80
2022-11-15T09:40:03.004Z,29.50
2022-11-15T09:43:10.172Z,27.70
2022-11-15T09:46:05.569Z,23.30
2022-11-15T09:48:58.519Z,23.00
2022-11-15T09:51:56.433Z,23.00
2022-11-15T09:54:56.600Z,22.00
2022-11-15T09:57:46.568Z,24.00
2022-11-15T10:00:50.463Z,23.50
2022-11-15T10:03:43.046Z,22.10
2022-11-15T10:06:26.581Z,22.90
2022-11-15T10:09:06.149Z,22.70
2022-11-15T10:11:39.594Z,23.60
2022-11-15T10:14:26.211Z,24.60
2022-11-15T10:17:27.040Z,24.10
2022-11-15T10:20:15.123Z,24.50
2022-11-15T10:25:29.025Z,30.30
2022-11-15T10:28:11.168Z,30.50
2022-11-15T10:30:51.145Z,30.50
2022-11-15T10:33:36.148Z,34.40
2022-11-15T10:36:15.180Z,33.70
2022-11-15T10:38:51.526Z,34.20
2022-11-15T10:41:33.329Z,33.30
2022-11-15T10:44:13.622Z,34.00
2022-11-15T10:46:48.185Z,30.40
2022-11-15T10:49:23.918Z,31.30
2022-11-15T10:51:59.939Z,32.30
2022-11-15T10:54:42.892Z,28.30
2022-11-15T10:57:21.692Z,34.40
2022-11-15T11:00:07.056Z,31.20
2022-11-15T11:02:47.462Z,33.00
2022-11-15T11:05:42.208Z,34.10
2022-11-15T11:08:15.824Z,34.80
2022-11-15T11:11:01.939Z,36.60
2022-11-15T11:13:41.263Z,39.20
2022-11-15T11:16:21.166Z,33.00
2022-11-15T11:19:31.162Z,33.60
2022-11-15T11:22:27.704Z,34.70
2022-11-15T11:25:30.933Z,37.00
2022-11-15T11:28:04.300Z,36.90
2022-11-15T11:31:11.567Z,35.80
2022-11-15T11:33:46.444Z,36.00
2022-11-15T11:36:34.874Z,39.80
2022-11-15T11:39:20.459Z,38.70
2022-11-15T11:42:06.195Z,40.10
2022-11-15T11:44:52.999Z,38.10
2022-11-15T11:47:41.292Z,41.20
2022-11-15T11:50:21.185Z,45.70
2022-11-15T11:53:19.617Z,41.90
2022-11-15T11:55:58.943Z,44.00
2022-11-15T11:58:43.333Z,45.80
2022-11-15T12:01:26.946Z,48.20
2022-11-15T12:04:06.486Z,44.80
2022-11-15T12:07:05.747Z,43.60
2022-11-15T12:10:17.542Z,44.50
2022-11-15T12:13:18.661Z,45.90
2022-11-15T12:16:11.299Z,45.90
2022-11-15T12:18:51.728Z,47.10
2022-11-15T12:21:43.907Z,48.20
2022-11-15T12:24:28.079Z,47.30
2022-11-15T12:27:25.096Z,44.90
2022-11-15T12:30:02.844Z,46.90
2022-11-15T12:32:39.058Z,43.30
2022-11-15T12:35:39.148Z,46.90
2022-11-15T12:38:14.332Z,43.10
2022-11-15T12:41:15.466Z,43.60
2022-11-15T12:43:48.826Z,39.30
2022-11-15T12:46:25.891Z,43.00
2022-11-15T12:48:59.264Z,41.00
2022-11-15T12:51:45.199Z,43.20
2022-11-15T12:54:23.210Z,42.30
2022-11-15T12:57:04.787Z,44.00
2022-11-15T13:00:12.266Z,39.30
2022-11-15T13:05:17.704Z,41.00
2022-11-15T13:07:51.113Z,40.20
2022-11-15T13:10:32.589Z,41.50
2022-11-15T13:13:05.045Z,38.90
2022-11-15T13:15:55.806Z,37.70
2022-11-15T13:18:39.573Z,40.80
2022-11-15T13:21:45.299Z,39.80
2022-11-15T13:24:18.343Z,36.20
2022-11-15T13:26:47.994Z,39.50
2022-11-15T13:29:21.054Z,40.20
2022-11-15T13:31:51.915Z,39.70
2022-11-15T13:37:21.359Z,40.10
2022-11-15T13:39:52.627Z,44.80
2022-11-15T13:42:23.233Z,39.30
2022-11-15T13:45:03.112Z,41.70
2022-11-15T13:47:33.989Z,41.00
2022-11-15T13:50:09.676Z,40.80
2022-11-15T13:52:45.154Z,41.90
2022-11-15T13:55:23.272Z,43.90
2022-11-15T14:00:29.369Z,45.90
2022-11-15T14:03:07.434Z,64.10
2022-11-15T14:08:25.278Z,47.60
2022-11-15T14:11:21.382Z,44.40
2022-11-15T14:14:09.797Z,45.00
2022-11-15T14:16:41.999Z,47.80
2022-11-15T14:19:33.778Z,41.10
2022-11-15T14:22:14.864Z,34.60
2022-11-15T14:24:47.739Z,40.80
2022-11-15T14:27:19.873Z,39.40
2022-11-15T14:29:50.868Z,40.70
2022-11-15T14:32:32.144Z,41.20
2022-11-15T14:35:04.210Z,44.00
2022-11-15T14:37:38.274Z,36.90
2022-11-15T14:40:11.145Z,37.50
2022-11-15T14:42:41.134Z,40.20
2022-11-15T14:45:23.914Z,38.90
2022-11-15T14:47:53.013Z,39.10
2022-11-15T14:50:24.443Z,35.10
2022-11-15T14:52:54.724Z,41.90
2022-11-15T14:55:33.380Z,37.50
2022-11-15T14:58:05.199Z,40.30
2022-11-15T15:00:38.672Z,42.80
2022-11-15T15:03:09.713Z,40.30
2022-11-15T15:05:44.488Z,41.10
2022-11-15T15:08:14.414Z,40.70
2022-11-15T15:10:46.927Z,43.10
2022-11-15T15:13:25.078Z,44.00
2022-11-15T15:15:55.247Z,46.60
2022-11-15T15:18:24.865Z,49.70
2022-11-15T15:21:01.341Z,52.80
2022-11-15T15:23:34.530Z,48.10
2022-11-15T15:26:05.994Z,48.00
2022-11-15T15:28:37.382Z,48.20
2022-11-15T15:31:07.303Z,51.30
2022-11-15T15:33:37.272Z,54.00
2022-11-15T15:36:07.080Z,45.70
2022-11-15T15:38:36.508Z,42.70
2022-11-15T15:41:05.993Z,46.60
2022-11-15T15:43:36.921Z,44.00
2022-11-15T15:46:11.853Z,49.40
2022-11-15T15:48:42.222Z,52.60
2022-11-15T15:51:18.726Z,52.60
2022-11-15T15:53:49.989Z,86.80
2022-11-15T15:56:19.628Z,94.80
2022-11-15T15:58:53.312Z,93.40
2022-11-15T16:01:23.380Z,86.60
2022-11-15T16:03:52.160Z,78.50
2022-11-15T16:06:40.642Z,76.00
2022-11-15T16:09:17.035Z,81.20
2022-11-15T16:11:48.648Z,80.70
2022-11-15T16:14:18.210Z,79.50
2022-11-15T16:16:48.221Z,100.80
2022-11-15T16:19:17.875Z,111.30
2022-11-15T16:21:47.858Z,121.80
2022-11-15T16:24:17.435Z,128.30
2022-11-15T16:26:48.618Z,114.30
2022-11-15T16:29:18.980Z,119.80
2022-11-15T16:31:49.216Z,159.80
2022-11-15T16:34:19.209Z,173.30
2022-11-15T16:36:48.109Z,193.40
2022-11-15T16:39:19.901Z,125.70
2022-11-15T16:41:50.041Z,128.50
2022-11-15T16:44:20.102Z,118.70
2022-11-15T16:46:52.422Z,110.00
2022-11-15T16:49:22.359Z,130.10
2022-11-15T16:51:52.009Z,109.70
2022-11-15T16:54:20.959Z,114.60
2022-11-15T16:56:51.070Z,106.40
2022-11-15T16:59:21.647Z,104.80
2022-11-15T17:01:51.581Z,102.10
2022-11-15T17:04:23.154Z,107.60
2022-11-15T17:06:53.532Z,94.90
2022-11-15T17:09:25.132Z,83.10
2022-11-15T17:11:54.979Z,88.40
2022-11-15T17:14:23.895Z,86.20
2022-11-15T17:16:57.811Z,93.90
2022-11-15T17:19:28.400Z,94.60
2022-11-15T17:21:57.349Z,87.30
2022-11-15T17:24:27.604Z,90.20
2022-11-15T17:26:57.594Z,74.50
2022-11-15T17:29:27.798Z,77.50
2022-11-15T17:31:57.877Z,73.90
2022-11-15T17:34:27.496Z,71.00
2022-11-15T17:36:57.273Z,72.00
2022-11-15T17:39:26.299Z,72.30
2022-11-15T17:41:55.405Z,74.20
2022-11-15T17:44:29.595Z,113.70
2022-11-15T17:46:59.818Z,120.00
2022-11-15T17:49:29.238Z,116.70
2022-11-15T17:51:59.617Z,111.90
2022-11-15T17:54:30.053Z,109.40
2022-11-15T17:57:00.571Z,111.90
2022-11-15T17:59:30.355Z,99.60
2022-11-15T18:02:01.024Z,97.80
2022-11-15T18:04:31.277Z,106.50
2022-11-15T18:07:01.402Z,104.00
2022-11-15T18:09:31.543Z,87.10
2022-11-15T18:12:00.472Z,72.00
2022-11-15T18:14:30.901Z,69.20
2022-11-15T18:16:59.874Z,65.00
2022-11-15T18:19:31.989Z,75.30
2022-11-15T18:22:04.808Z,72.90
2022-11-15T18:24:38.788Z,75.40
2022-11-15T18:27:09.132Z,68.50
2022-11-15T18:29:39.479Z,65.30
2022-11-15T18:32:12.861Z,62.20
2022-11-15T18:34:43.823Z,64.80
2022-11-15T18:37:12.725Z,77.90
2022-11-15T18:39:43.202Z,91.20
2022-11-15T18:42:12.039Z,81.50
2022-11-15T18:44:42.521Z,82.10
2022-11-15T18:47:12.150Z,84.50
2022-11-15T18:49:41.521Z,87.80
2022-11-15T18:52:11.675Z,93.30
2022-11-15T18:54:41.700Z,86.80
2022-11-15T18:57:11.366Z,78.90
2022-11-15T18:59:42.778Z,75.20
2022-11-15T19:02:13.497Z,69.30
2022-11-15T19:04:43.310Z,63.90
2022-11-15T19:07:13.441Z,59.90
2022-11-15T19:09:43.475Z,70.90
2022-11-15T19:12:13.499Z,56.80
2022-11-15T19:14:43.823Z,58.10
2022-11-15T19:17:14.227Z,61.40
2022-11-15T19:19:44.245Z,65.40
2022-11-15T19:22:14.231Z,69.30
2022-11-15T19:24:43.934Z,76.40
2022-11-15T19:27:13.513Z,79.50
2022-11-15T19:29:42.985Z,75.10
2022-11-15T19:32:13.064Z,65.30
2022-11-15T19:34:43.266Z,65.80
2022-11-15T19:37:12.981Z,65.20
2022-11-15T19:39:42.862Z,73.70
2022-11-15T19:42:13.016Z,72.00
2022-11-15T19:44:43.137Z,81.00
2022-11-15T19:47:12.889Z,71.10
2022-11-15T19:49:43.829Z,75.60
2022-11-15T19:52:13.874Z,76.20
2022-11-15T19:54:43.858Z,76.10
2022-11-15T19:57:14.168Z,75.10
2022-11-15T19:59:44.535Z,80.30
2022-11-15T20:02:14.508Z,84.50
2022-11-15T20:04:43.675Z,86.50
2022-11-15T20:07:13.347Z,88.00
2022-11-15T20:09:44.089Z,91.30
2022-11-15T20:12:14.133Z,85.80
2022-11-15T20:14:46.448Z,84.40
2022-11-15T20:17:16.426Z,85.40
2022-11-15T20:19:46.506Z,87.50
2022-11-15T20:22:16.550Z,94.20
2022-11-15T20:24:46.604Z,93.00
2022-11-15T20:27:16.756Z,97.00
2022-11-15T20:29:46.707Z,94.00
2022-11-15T20:32:16.920Z,93.70
2022-11-15T20:34:51.451Z,93.20
2022-11-15T20:37:24.710Z,96.00
2022-11-15T20:39:55.117Z,91.40
2022-11-15T20:42:26.457Z,90.80
2022-11-15T20:44:56.695Z,97.40
2022-11-15T20:47:30.102Z,104.20
2022-11-15T20:50:20.873Z,107.70
2022-11-15T20:52:52.097Z,103.80
2022-11-15T20:55:22.123Z,104.10
2022-11-15T20:57:52.491Z,99.90
2022-11-15T21:00:27.603Z,95.10
2022-11-15T21:02:57.555Z,102.00
2022-11-15T21:05:29.069Z,100.50
2022-11-15T21:07:59.432Z,92.20
2022-11-15T21:10:49.488Z,86.70
2022-11-15T21:13:19.945Z,91.90
2022-11-15T21:15:50.035Z,92.20
2022-11-15T21:18:19.995Z,89.80
2022-11-15T21:20:50.929Z,85.80
2022-11-15T21:23:21.447Z,83.80
2022-11-15T21:25:53.484Z,79.70
2022-11-15T21:28:24.453Z,85.20
2022-11-15T21:30:56.833Z,82.40
2022-11-15T21:33:30.729Z,82.40
2022-11-15T21:36:01.813Z,78.70
2022-11-15T21:38:32.673Z,78.80
2022-11-15T21:41:06.752Z,71.80
2022-11-15T21:43:36.711Z,70.40
2022-11-15T21:46:07.592Z,69.20
2022-11-15T21:48:37.954Z,69.30
2022-11-15T21:51:10.887Z,63.30
2022-11-15T21:53:41.731Z,63.90
2022-11-15T21:56:14.309Z,61.60
2022-11-15T21:58:43.741Z,75.00
2022-11-15T22:01:33.120Z,77.00
2022-11-15T22:04:03.585Z,83.10
2022-11-15T22:06:34.645Z,64.10
2022-11-15T22:09:05.707Z,68.80
2022-11-15T22:11:36.198Z,62.90
2022-11-15T22:14:06.435Z,65.60
2022-11-15T22:16:38.069Z,63.10
2022-11-15T22:19:08.488Z,62.70
2022-11-15T22:21:40.294Z,82.70
2022-11-15T22:24:10.407Z,87.90
2022-11-15T22:26:40.315Z,102.70
2022-11-15T22:29:10.415Z,106.30
2022-11-15T22:31:42.600Z,91.70
2022-11-15T22:34:12.464Z,70.80
2022-11-15T22:37:13.143Z,68.90
2022-11-15T22:39:36.238Z,70.80
2022-11-15T22:42:06.615Z,65.50
2022-11-15T22:44:37.054Z,72.60
2022-11-15T22:47:05.943Z,69.10
2022-11-15T22:49:37.119Z,74.30
2022-11-15T22:52:07.477Z,68.10
2022-11-15T22:54:37.843Z,69.00
2022-11-15T22:57:08.359Z,64.50
2022-11-15T22:59:38.781Z,74.70
2022-11-15T23:02:09.363Z,75.00
2022-11-15T23:04:39.833Z,65.20
2022-11-15T23:07:11.014Z,68.30
2022-11-15T23:09:41.717Z,70.40
2022-11-15T23:12:44.608Z,63.30
2022-11-15T23:15:14.526Z,66.60
2022-11-15T23:17:44.460Z,57.70
2022-11-15T23:20:36.880Z,58.90
2022-11-15T23:23:05.149Z,64.30
2022-11-15T23:25:34.552Z,73.10
2022-11-15T23:28:05.819Z,70.70
2022-11-15T23:30:56.905Z,66.30
2022-11-15T23:33:57.570Z,67.60
2022-11-15T23:36:29.865Z,67.90
2022-11-15T23:39:02.405Z,73.40
2022-11-15T23:41:31.406Z,71.90
2022-11-15T23:44:01.641Z,69.40
2022-11-15T23:46:32.668Z,72.80
2022-11-15T23:49:03.399Z,71.60
2022-11-15T23:51:34.232Z,63.00
2022-11-15T23:54:04.738Z,113.00
2022-11-15T23:56:35.493Z,73.30
2022-11-15T23:59:06.576Z,75.10
